Aviation Digital Data Service (ADDS)

Output produced by METARs form (0141 UTC 20 April 2014)
found at http://aviationweather.gov/adds/metars/
 
KAEX 200053Z 00000KT 10SM FEW060 20/14 A3010 RMK AO2 SLP196 T02000144 $